createdAt,value
2022-07-26T00:00:22.515Z,76.10
2022-07-26T00:02:54.603Z,75.60
2022-07-26T00:05:26.764Z,75.80
2022-07-26T00:08:10.816Z,77.30
2022-07-26T00:10:48.818Z,77.30
2022-07-26T00:13:21.577Z,77.90
2022-07-26T00:15:53.890Z,78.20
2022-07-26T00:18:26.050Z,78.20
2022-07-26T00:20:58.108Z,79.10
2022-07-26T00:23:30.058Z,79.60
2022-07-26T00:26:02.024Z,80.50
2022-07-26T00:28:34.014Z,80.00
2022-07-26T00:31:06.279Z,80.40
2022-07-26T00:33:38.216Z,79.80
2022-07-26T00:36:10.244Z,81.00
2022-07-26T00:38:42.357Z,81.60
2022-07-26T00:41:14.242Z,83.20
2022-07-26T00:43:57.045Z,84.20
2022-07-26T00:46:29.051Z,84.50
2022-07-26T00:49:01.072Z,83.90
2022-07-26T00:51:33.102Z,84.10
2022-07-26T00:54:05.995Z,84.10
2022-07-26T00:56:38.975Z,84.10
2022-07-26T00:59:11.348Z,83.80
2022-07-26T01:01:43.657Z,83.40
2022-07-26T01:04:15.940Z,83.50
2022-07-26T01:06:49.400Z,84.20
2022-07-26T01:09:21.402Z,83.80
2022-07-26T01:11:53.478Z,83.80
2022-07-26T01:14:25.917Z,83.80
2022-07-26T01:16:58.021Z,83.50
2022-07-26T01:19:30.100Z,83.30
2022-07-26T01:22:02.083Z,83.90
2022-07-26T01:24:34.157Z,83.80
2022-07-26T01:27:06.280Z,84.40
2022-07-26T01:29:38.836Z,83.90
2022-07-26T01:32:10.860Z,83.60
2022-07-26T01:34:42.781Z,82.80
2022-07-26T01:37:14.776Z,82.80
2022-07-26T01:39:46.824Z,83.70
2022-07-26T01:42:18.688Z,84.10
2022-07-26T01:44:50.718Z,83.20
2022-07-26T01:47:22.687Z,82.20
2022-07-26T01:49:54.630Z,83.20
2022-07-26T01:52:27.631Z,84.90
2022-07-26T01:54:59.581Z,84.00
2022-07-26T01:57:31.549Z,82.90
2022-07-26T02:00:06.169Z,82.70
2022-07-26T02:02:39.253Z,83.70
2022-07-26T02:05:12.591Z,82.10
2022-07-26T02:07:45.011Z,83.10
2022-07-26T02:10:17.158Z,83.20
2022-07-26T02:12:49.794Z,81.80
2022-07-26T02:15:21.782Z,81.80
2022-07-26T02:17:53.687Z,81.10
2022-07-26T02:20:25.639Z,80.80
2022-07-26T02:22:57.572Z,81.00
2022-07-26T02:25:30.064Z,82.00
2022-07-26T02:28:02.096Z,82.90
2022-07-26T02:30:34.212Z,83.60
2022-07-26T02:33:06.338Z,83.50
2022-07-26T02:35:38.367Z,83.50
2022-07-26T02:38:13.611Z,83.70
2022-07-26T02:40:45.528Z,84.10
2022-07-26T02:43:17.349Z,84.20
2022-07-26T02:46:01.333Z,83.70
2022-07-26T02:48:33.939Z,84.50
2022-07-26T02:51:06.029Z,84.80
2022-07-26T02:53:37.929Z,84.80
2022-07-26T02:56:10.420Z,84.50
2022-07-26T02:58:42.420Z,83.50
2022-07-26T03:01:14.356Z,83.20
2022-07-26T03:03:50.548Z,83.50
2022-07-26T03:06:23.244Z,83.40
2022-07-26T03:08:55.116Z,83.70
2022-07-26T03:11:27.033Z,83.70
2022-07-26T03:13:58.922Z,83.90
2022-07-26T03:16:31.213Z,83.20
2022-07-26T03:19:03.211Z,83.10
2022-07-26T03:21:35.097Z,83.60
2022-07-26T03:24:07.508Z,83.70
2022-07-26T03:26:39.621Z,83.90
2022-07-26T03:29:11.542Z,84.10
2022-07-26T03:31:43.501Z,84.70
2022-07-26T03:34:15.439Z,84.70
2022-07-26T03:36:47.366Z,85.10
2022-07-26T03:39:19.334Z,84.90
2022-07-26T03:41:51.270Z,85.40
2022-07-26T03:44:23.126Z,85.90
2022-07-26T03:46:55.053Z,85.20
2022-07-26T03:49:27.951Z,84.50
2022-07-26T03:52:00.000Z,84.50
2022-07-26T03:54:31.896Z,84.60
2022-07-26T03:57:03.807Z,84.40
2022-07-26T03:59:35.895Z,83.70
2022-07-26T04:02:07.811Z,83.90
2022-07-26T04:04:39.686Z,84.00
2022-07-26T04:07:11.684Z,84.30
2022-07-26T04:09:44.595Z,86.00
2022-07-26T04:12:16.485Z,85.30
2022-07-26T04:14:48.411Z,84.50
2022-07-26T04:17:20.315Z,84.10
2022-07-26T04:19:52.240Z,83.70
2022-07-26T04:22:24.103Z,83.90
2022-07-26T04:24:56.048Z,83.70
2022-07-26T04:27:28.160Z,83.10
2022-07-26T04:30:00.736Z,83.10
2022-07-26T04:32:32.793Z,83.70
2022-07-26T04:35:05.053Z,82.70
2022-07-26T04:37:41.352Z,83.20
2022-07-26T04:40:21.394Z,81.80
2022-07-26T04:42:55.321Z,82.30
2022-07-26T04:45:27.682Z,81.70
2022-07-26T04:47:59.573Z,80.00
2022-07-26T04:50:31.561Z,80.80
2022-07-26T04:53:03.612Z,81.00
2022-07-26T04:55:35.656Z,81.20
2022-07-26T04:58:07.958Z,81.00
2022-07-26T05:01:09.136Z,80.10
2022-07-26T05:03:31.846Z,79.50
2022-07-26T05:06:03.808Z,79.80
2022-07-26T05:08:35.682Z,80.50
2022-07-26T05:11:07.787Z,79.30
2022-07-26T05:13:39.667Z,78.50
2022-07-26T05:16:12.219Z,77.80
2022-07-26T05:18:48.776Z,77.40
2022-07-26T05:21:21.588Z,75.90
2022-07-26T05:23:54.164Z,75.60
2022-07-26T05:26:26.119Z,74.00
2022-07-26T05:28:59.090Z,73.20
2022-07-26T05:31:30.978Z,73.00
2022-07-26T05:34:03.732Z,73.00
2022-07-26T05:36:35.677Z,72.30
2022-07-26T05:39:08.944Z,70.70
2022-07-26T05:41:43.643Z,69.90
2022-07-26T05:44:15.623Z,68.90
2022-07-26T05:46:47.491Z,68.30
2022-07-26T05:49:19.395Z,67.60
2022-07-26T05:51:51.636Z,68.80
2022-07-26T05:54:23.517Z,69.50
2022-07-26T05:56:55.417Z,70.60
2022-07-26T05:59:27.423Z,71.00
2022-07-26T06:01:59.443Z,71.10
2022-07-26T06:04:31.503Z,71.60
2022-07-26T06:07:03.544Z,71.80
2022-07-26T06:09:35.470Z,71.40
2022-07-26T06:12:07.535Z,70.20
2022-07-26T06:14:39.545Z,70.60
2022-07-26T06:17:11.916Z,69.60
2022-07-26T06:19:47.587Z,69.00
2022-07-26T06:22:19.878Z,68.80
2022-07-26T06:24:51.941Z,69.00
2022-07-26T06:27:23.759Z,69.70
2022-07-26T06:29:55.601Z,69.40
2022-07-26T06:32:27.535Z,69.70
2022-07-26T06:34:59.467Z,69.80
2022-07-26T06:37:31.405Z,69.70
2022-07-26T06:40:04.004Z,70.00
2022-07-26T06:42:36.649Z,70.20
2022-07-26T06:45:09.466Z,70.90
2022-07-26T06:47:41.393Z,71.20
2022-07-26T06:50:13.391Z,70.70
2022-07-26T06:52:47.976Z,69.80
2022-07-26T06:55:19.997Z,68.80
2022-07-26T06:57:52.303Z,68.70
2022-07-26T07:00:24.233Z,69.50
2022-07-26T07:02:56.139Z,69.00
2022-07-26T07:05:31.170Z,68.00
2022-07-26T07:08:03.466Z,67.20
2022-07-26T07:10:35.432Z,68.50
2022-07-26T07:13:08.065Z,68.30
2022-07-26T07:15:40.022Z,68.70
2022-07-26T07:18:12.077Z,68.00
2022-07-26T07:20:43.990Z,67.60
2022-07-26T07:23:15.954Z,66.40
2022-07-26T07:25:47.861Z,65.20
2022-07-26T07:28:20.955Z,64.20
2022-07-26T07:30:55.617Z,63.50
2022-07-26T07:33:32.143Z,63.70
2022-07-26T07:36:15.492Z,62.30
2022-07-26T07:38:49.132Z,64.60
2022-07-26T07:41:21.304Z,64.70
2022-07-26T07:43:53.233Z,64.20
2022-07-26T07:46:25.186Z,64.20
2022-07-26T07:48:59.447Z,65.60
2022-07-26T07:51:32.354Z,66.90
2022-07-26T07:54:05.886Z,67.70
2022-07-26T07:56:38.052Z,67.10
2022-07-26T07:59:10.389Z,66.60
2022-07-26T08:01:42.654Z,66.30
2022-07-26T08:04:17.187Z,67.50
2022-07-26T08:06:51.374Z,68.00
2022-07-26T08:09:23.512Z,67.20
2022-07-26T08:11:55.512Z,68.00
2022-07-26T08:14:27.352Z,66.90
2022-07-26T08:16:59.297Z,67.10
2022-07-26T08:19:42.203Z,69.80
2022-07-26T08:22:14.562Z,68.30
2022-07-26T08:24:46.938Z,67.30
2022-07-26T08:27:18.948Z,66.30
2022-07-26T08:29:50.834Z,66.70
2022-07-26T08:32:22.767Z,65.90
2022-07-26T08:34:54.731Z,65.70
2022-07-26T08:37:47.042Z,65.60
2022-07-26T08:40:18.975Z,66.70
2022-07-26T08:42:52.943Z,66.40
2022-07-26T08:45:29.485Z,66.00
2022-07-26T08:48:18.354Z,66.90
2022-07-26T08:50:51.288Z,65.70
2022-07-26T08:53:23.425Z,65.70
2022-07-26T08:56:06.761Z,65.40
2022-07-26T08:58:40.816Z,65.40
2022-07-26T09:01:13.489Z,64.40
2022-07-26T09:03:45.937Z,63.40
2022-07-26T09:06:22.761Z,62.50
2022-07-26T09:09:11.583Z,61.30
2022-07-26T09:11:43.642Z,62.90
2022-07-26T09:14:15.643Z,62.70
2022-07-26T09:16:58.869Z,62.10
2022-07-26T09:19:30.736Z,60.70
2022-07-26T09:22:14.060Z,59.90
2022-07-26T09:24:48.112Z,60.80
2022-07-26T09:27:20.157Z,60.60
2022-07-26T09:29:54.369Z,61.90
2022-07-26T09:32:26.887Z,61.30
2022-07-26T09:35:45.452Z,60.40
2022-07-26T09:38:15.838Z,60.60
2022-07-26T09:40:50.955Z,60.60
2022-07-26T09:43:23.855Z,60.00
2022-07-26T09:46:05.468Z,60.20
2022-07-26T09:49:09.563Z,61.70
2022-07-26T09:51:43.579Z,61.90
2022-07-26T09:54:30.400Z,61.50
2022-07-26T09:57:02.863Z,60.50
2022-07-26T09:59:34.716Z,60.20
2022-07-26T10:02:06.765Z,61.10
2022-07-26T10:04:38.764Z,60.80
2022-07-26T10:07:11.100Z,61.30
2022-07-26T10:09:49.606Z,61.40
2022-07-26T10:12:27.235Z,61.10
2022-07-26T10:15:02.446Z,60.20
2022-07-26T10:17:42.564Z,60.30
2022-07-26T10:20:43.881Z,60.10
2022-07-26T10:23:36.138Z,60.80
2022-07-26T10:26:11.804Z,61.50
2022-07-26T10:28:44.008Z,61.00
2022-07-26T10:31:29.901Z,61.70
2022-07-26T10:34:01.975Z,61.60
2022-07-26T10:36:39.583Z,62.20
2022-07-26T10:39:14.808Z,62.20
2022-07-26T10:41:56.909Z,62.80
2022-07-26T10:44:33.922Z,63.40
2022-07-26T10:47:08.623Z,63.00
2022-07-26T10:49:43.176Z,63.60
2022-07-26T10:52:18.479Z,64.60
2022-07-26T10:54:59.346Z,64.20
2022-07-26T10:57:35.687Z,64.30
2022-07-26T11:00:11.040Z,64.40
2022-07-26T11:02:47.267Z,63.40
2022-07-26T11:05:19.584Z,63.40
2022-07-26T11:08:10.630Z,64.30
2022-07-26T11:10:47.433Z,63.70
2022-07-26T11:13:25.844Z,62.60
2022-07-26T11:16:04.774Z,61.80
2022-07-26T11:18:38.686Z,62.60
2022-07-26T11:21:16.100Z,61.70
2022-07-26T11:23:48.717Z,61.70
2022-07-26T11:26:23.293Z,62.10
2022-07-26T11:28:58.175Z,62.20
2022-07-26T11:31:50.347Z,62.30
2022-07-26T11:34:29.768Z,62.40
2022-07-26T11:37:04.689Z,62.50
2022-07-26T11:39:36.761Z,62.30
2022-07-26T11:42:12.040Z,63.30
2022-07-26T11:44:45.699Z,63.30
2022-07-26T11:47:20.234Z,62.90
2022-07-26T11:50:12.479Z,62.80
2022-07-26T11:52:44.168Z,62.50
2022-07-26T11:55:29.238Z,62.50
2022-07-26T11:58:06.647Z,63.10
2022-07-26T12:00:38.714Z,62.40
2022-07-26T12:03:10.573Z,61.90
2022-07-26T12:05:42.845Z,62.20
2022-07-26T12:08:14.831Z,62.30
2022-07-26T12:10:54.483Z,62.20
2022-07-26T12:13:26.471Z,62.20
2022-07-26T12:15:58.515Z,62.20
2022-07-26T12:18:31.652Z,62.10
2022-07-26T12:21:07.862Z,62.40
2022-07-26T12:23:46.430Z,61.30
2022-07-26T12:26:23.339Z,60.90
2022-07-26T12:28:56.454Z,60.10
2022-07-26T12:31:34.115Z,61.10
2022-07-26T12:34:06.986Z,61.70
2022-07-26T12:36:38.987Z,60.60
2022-07-26T12:39:22.157Z,60.80
2022-07-26T12:41:54.100Z,60.90
2022-07-26T12:44:26.058Z,61.30
2022-07-26T12:46:57.936Z,61.20
2022-07-26T12:49:30.203Z,62.20
2022-07-26T12:52:02.167Z,61.50
2022-07-26T12:54:34.057Z,61.50
2022-07-26T12:57:06.015Z,61.70
2022-07-26T12:59:42.946Z,62.50
2022-07-26T13:02:18.435Z,62.80
2022-07-26T13:04:50.777Z,62.90
2022-07-26T13:07:22.790Z,62.50
2022-07-26T13:10:14.226Z,62.40
2022-07-26T13:12:46.648Z,62.50
2022-07-26T13:15:18.589Z,61.80
2022-07-26T13:17:51.671Z,61.60
2022-07-26T13:20:23.644Z,61.80
2022-07-26T13:22:55.518Z,62.20
2022-07-26T13:25:29.016Z,62.70
2022-07-26T13:28:03.811Z,63.90
2022-07-26T13:30:41.038Z,63.80
2022-07-26T13:33:13.109Z,63.10
2022-07-26T13:35:45.009Z,62.40
2022-07-26T13:38:19.158Z,62.60
2022-07-26T13:40:51.078Z,63.70
2022-07-26T13:43:22.981Z,63.10
2022-07-26T13:45:55.019Z,62.60
2022-07-26T13:48:27.127Z,62.30
2022-07-26T13:50:58.971Z,62.00
2022-07-26T13:53:30.820Z,62.50
2022-07-26T13:56:03.359Z,62.30
2022-07-26T13:58:35.993Z,62.30
2022-07-26T14:01:08.050Z,62.20
2022-07-26T14:03:40.051Z,61.90
2022-07-26T14:06:11.986Z,62.40
2022-07-26T14:08:43.848Z,63.00
2022-07-26T14:11:15.757Z,62.90
2022-07-26T14:13:47.916Z,62.90
2022-07-26T14:16:20.071Z,63.00
2022-07-26T14:18:54.913Z,62.40
2022-07-26T14:21:38.589Z,62.80
2022-07-26T14:24:20.874Z,62.60
2022-07-26T14:26:56.850Z,62.10
2022-07-26T14:29:30.369Z,62.20
2022-07-26T14:32:03.225Z,62.00
2022-07-26T14:34:35.221Z,61.80
2022-07-26T14:37:08.467Z,62.00
2022-07-26T14:39:59.273Z,62.30
2022-07-26T14:42:31.214Z,63.40
2022-07-26T14:45:03.446Z,64.30
2022-07-26T14:47:35.614Z,63.90
2022-07-26T14:50:08.872Z,63.20
2022-07-26T14:52:46.227Z,64.00
2022-07-26T14:55:23.114Z,64.10
2022-07-26T14:57:56.801Z,64.40
2022-07-26T15:00:28.765Z,64.50
2022-07-26T15:03:00.644Z,64.50
2022-07-26T15:05:32.541Z,64.80
2022-07-26T15:08:06.293Z,64.40
2022-07-26T15:10:38.326Z,64.70
2022-07-26T15:13:10.465Z,64.10
2022-07-26T15:15:42.749Z,64.20
2022-07-26T15:18:14.707Z,64.00
2022-07-26T15:20:46.756Z,64.00
2022-07-26T15:23:19.746Z,64.20
2022-07-26T15:25:51.837Z,64.00
2022-07-26T15:28:23.752Z,63.80
2022-07-26T15:30:55.924Z,63.90
2022-07-26T15:33:27.845Z,64.70
2022-07-26T15:36:03.998Z,64.10
2022-07-26T15:38:37.703Z,64.00
2022-07-26T15:41:09.599Z,64.20
2022-07-26T15:43:48.499Z,64.10
2022-07-26T15:46:20.943Z,64.00
2022-07-26T15:48:54.950Z,63.90
2022-07-26T15:51:27.132Z,63.70
2022-07-26T15:53:59.043Z,63.00
2022-07-26T15:56:30.944Z,62.70
2022-07-26T15:59:04.212Z,62.30
2022-07-26T16:01:36.891Z,61.70
2022-07-26T16:04:09.404Z,61.90
2022-07-26T16:06:41.800Z,61.70
2022-07-26T16:09:18.642Z,61.80
2022-07-26T16:11:51.324Z,61.90
2022-07-26T16:14:23.273Z,61.80
2022-07-26T16:16:57.279Z,61.80
2022-07-26T16:19:29.234Z,61.60
2022-07-26T16:22:02.411Z,61.60
2022-07-26T16:24:35.425Z,62.00
2022-07-26T16:27:07.332Z,61.70
2022-07-26T16:29:39.259Z,61.90
2022-07-26T16:32:12.139Z,61.80
2022-07-26T16:34:44.078Z,61.70
2022-07-26T16:37:15.956Z,61.30
2022-07-26T16:39:48.231Z,61.60
2022-07-26T16:42:20.077Z,61.60
2022-07-26T16:44:51.935Z,61.60
2022-07-26T16:47:23.856Z,61.60
2022-07-26T16:49:55.859Z,61.30
2022-07-26T16:52:27.788Z,61.30
2022-07-26T16:55:00.213Z,61.60
2022-07-26T16:57:32.197Z,61.70
2022-07-26T17:00:10.491Z,61.60
2022-07-26T17:02:42.466Z,61.50
2022-07-26T17:05:14.991Z,61.20
2022-07-26T17:07:46.922Z,60.70
2022-07-26T17:10:18.857Z,60.80
2022-07-26T17:12:50.776Z,60.70
2022-07-26T17:15:22.703Z,60.90
2022-07-26T17:17:54.572Z,61.10
2022-07-26T17:20:26.806Z,61.10
2022-07-26T17:22:58.727Z,61.00
2022-07-26T17:25:30.712Z,60.80
2022-07-26T17:28:02.703Z,61.20
2022-07-26T17:30:34.578Z,61.20
2022-07-26T17:33:06.577Z,61.10
2022-07-26T17:35:39.862Z,61.40
2022-07-26T17:38:11.766Z,61.00
2022-07-26T17:40:43.846Z,60.70
2022-07-26T17:43:15.875Z,60.50
2022-07-26T17:45:47.882Z,60.50
2022-07-26T17:48:19.888Z,59.70
2022-07-26T17:50:51.796Z,59.80
2022-07-26T17:53:30.440Z,60.20
2022-07-26T17:56:07.211Z,61.20
2022-07-26T17:58:39.250Z,61.50
2022-07-26T18:01:11.493Z,61.90
2022-07-26T18:03:43.395Z,62.00
2022-07-26T18:06:15.656Z,62.30
2022-07-26T18:08:47.562Z,62.50
2022-07-26T18:11:19.485Z,62.10
2022-07-26T18:13:51.362Z,62.50
2022-07-26T18:16:23.409Z,62.60
2022-07-26T18:18:55.659Z,62.40
2022-07-26T18:21:28.010Z,62.30
2022-07-26T18:24:16.224Z,62.20
2022-07-26T18:26:48.547Z,62.20
2022-07-26T18:29:20.619Z,62.10
2022-07-26T18:31:52.698Z,62.20
2022-07-26T18:34:24.658Z,62.90
2022-07-26T18:36:56.620Z,62.40
2022-07-26T18:39:32.611Z,62.70
2022-07-26T18:42:05.095Z,62.90
2022-07-26T18:44:40.048Z,62.90
2022-07-26T18:47:11.892Z,63.00
2022-07-26T18:49:43.901Z,63.10
2022-07-26T18:52:15.875Z,63.20
2022-07-26T18:54:48.270Z,63.20
2022-07-26T18:57:20.116Z,63.40
2022-07-26T18:59:52.045Z,63.40
2022-07-26T19:02:23.944Z,64.40
2022-07-26T19:04:55.824Z,64.00
2022-07-26T19:07:27.728Z,63.30
2022-07-26T19:10:00.196Z,63.70
2022-07-26T19:12:32.198Z,63.70
2022-07-26T19:15:05.373Z,63.60
2022-07-26T19:17:38.088Z,63.80
2022-07-26T19:20:11.021Z,64.00
2022-07-26T19:22:44.624Z,64.30
2022-07-26T19:25:18.084Z,64.10
2022-07-26T19:27:49.884Z,64.30
2022-07-26T19:30:21.864Z,64.50
2022-07-26T19:32:53.737Z,64.40
2022-07-26T19:35:25.673Z,64.40
2022-07-26T19:37:57.731Z,64.50
2022-07-26T19:40:30.764Z,64.60
2022-07-26T19:43:02.713Z,64.70
2022-07-26T19:45:34.743Z,64.80
2022-07-26T19:48:07.057Z,65.10
2022-07-26T19:50:38.982Z,65.20
2022-07-26T19:53:10.985Z,65.40
2022-07-26T19:55:42.925Z,65.60
2022-07-26T19:58:14.947Z,65.60
2022-07-26T20:00:47.305Z,65.60
2022-07-26T20:03:19.219Z,65.60
2022-07-26T20:05:51.164Z,65.80
2022-07-26T20:08:23.075Z,65.70
2022-07-26T20:10:55.032Z,66.00
2022-07-26T20:13:27.027Z,66.10
2022-07-26T20:15:59.012Z,66.20
2022-07-26T20:18:31.064Z,66.40
2022-07-26T20:21:03.017Z,66.40
2022-07-26T20:23:34.943Z,66.30
2022-07-26T20:26:06.933Z,66.20
2022-07-26T20:28:38.893Z,66.30
2022-07-26T20:31:10.877Z,66.20
2022-07-26T20:33:42.896Z,66.10
2022-07-26T20:36:15.014Z,65.80
2022-07-26T20:38:51.340Z,65.60
2022-07-26T20:41:23.589Z,65.30
2022-07-26T20:43:56.852Z,65.40
2022-07-26T20:46:28.942Z,65.40
2022-07-26T20:49:00.920Z,65.40
2022-07-26T20:51:33.234Z,65.40
2022-07-26T20:54:05.845Z,65.80
2022-07-26T20:56:38.813Z,65.70
2022-07-26T20:59:10.943Z,65.70
2022-07-26T21:01:44.005Z,66.20
2022-07-26T21:04:16.156Z,66.50
2022-07-26T21:06:48.420Z,66.70
2022-07-26T21:09:20.578Z,66.90
2022-07-26T21:11:53.221Z,66.90
2022-07-26T21:14:25.201Z,67.50
2022-07-26T21:16:57.165Z,67.00
2022-07-26T21:19:29.164Z,67.00
2022-07-26T21:22:01.152Z,67.00
2022-07-26T21:24:34.948Z,67.10
2022-07-26T21:27:07.259Z,67.20
2022-07-26T21:29:39.618Z,67.40
2022-07-26T21:32:11.599Z,67.60
2022-07-26T21:34:43.573Z,67.80
2022-07-26T21:37:15.790Z,67.90
2022-07-26T21:39:47.676Z,68.00
2022-07-26T21:42:19.684Z,68.20
2022-07-26T21:44:51.579Z,68.30
2022-07-26T21:47:23.488Z,68.60
2022-07-26T21:49:55.473Z,68.80
2022-07-26T21:52:27.376Z,69.10
2022-07-26T21:54:59.319Z,69.20
2022-07-26T21:57:31.228Z,69.40
2022-07-26T22:00:05.855Z,69.60
2022-07-26T22:02:38.252Z,69.70
2022-07-26T22:05:28.945Z,69.70
2022-07-26T22:08:01.948Z,69.90
2022-07-26T22:10:35.224Z,70.20
2022-07-26T22:13:16.379Z,70.40
2022-07-26T22:15:48.327Z,70.70
2022-07-26T22:18:20.447Z,70.70
2022-07-26T22:20:52.736Z,70.90
2022-07-26T22:23:30.163Z,70.90
2022-07-26T22:26:03.655Z,70.90
2022-07-26T22:28:35.703Z,70.80
2022-07-26T22:31:07.647Z,70.70
2022-07-26T22:33:39.596Z,70.70
2022-07-26T22:36:11.459Z,70.90
2022-07-26T22:38:45.163Z,71.20
2022-07-26T22:41:17.155Z,70.10
2022-07-26T22:43:50.481Z,70.00
2022-07-26T22:46:27.801Z,70.40
2022-07-26T22:49:01.428Z,70.40
2022-07-26T22:51:33.387Z,69.30
2022-07-26T22:54:08.432Z,68.90
2022-07-26T22:56:42.031Z,68.70
2022-07-26T22:59:14.322Z,68.50
2022-07-26T23:01:46.526Z,68.90
2022-07-26T23:04:18.527Z,69.20
2022-07-26T23:06:51.091Z,68.90
2022-07-26T23:09:26.717Z,68.20
2022-07-26T23:11:59.628Z,68.10
2022-07-26T23:14:31.599Z,68.20
2022-07-26T23:17:03.685Z,68.20
2022-07-26T23:19:35.598Z,68.30
2022-07-26T23:22:07.539Z,68.40
2022-07-26T23:24:39.437Z,68.50
2022-07-26T23:27:19.854Z,68.60
2022-07-26T23:29:52.201Z,68.90
2022-07-26T23:32:24.048Z,68.70
2022-07-26T23:34:55.987Z,69.10
2022-07-26T23:37:27.845Z,68.80
2022-07-26T23:39:59.780Z,68.50
2022-07-26T23:42:31.655Z,68.40
2022-07-26T23:45:04.635Z,68.30
2022-07-26T23:47:36.685Z,68.50
2022-07-26T23:50:08.965Z,68.30
2022-07-26T23:52:40.869Z,68.70
2022-07-26T23:55:12.794Z,68.00
2022-07-26T23:57:44.766Z,67.80
